Time;durP1;ratioP1;P1;durP2;ratioP2;P2;SDS_P1;SDS_P2;PMS_P1;PMS_P2;Temp;Humidity;BMP_temperature;BMP_pressure;BME280_temperature;BME280_humidity;BME280_pressure;Samples;Min_cycle;Max_cycle;Signal;HPM_P1;HPM_P2
2022/07/09 00:00:50;;;;;;;71.00;13.60;;;19.80;82.90;;;;;;5086068;28;20200;-82
2022/07/09 00:03:16;;;;;;;72.17;14.13;;;19.80;81.90;;;;;;5085194;28;20167;-82
2022/07/09 00:05:42;;;;;;;71.00;13.90;;;19.80;82.30;;;;;;5085731;28;20173;-82
2022/07/09 00:08:07;;;;;;;72.17;15.30;;;19.80;82.00;;;;;;5085532;28;20524;-82
2022/07/09 00:10:33;;;;;;;68.67;12.47;;;19.70;83.50;;;;;;5083806;28;20168;-82
2022/07/09 00:12:59;;;;;;;71.17;14.53;;;19.70;83.90;;;;;;5085742;28;20183;-82
2022/07/09 00:15:25;;;;;;;71.80;14.37;;;19.70;83.00;;;;;;5085200;28;20172;-82
2022/07/09 00:17:51;;;;;;;70.60;12.57;;;19.70;83.70;;;;;;5083623;28;20188;-82
2022/07/09 00:20:16;;;;;;;70.87;13.87;;;19.70;84.70;;;;;;5084286;28;20406;-82
2022/07/09 00:22:42;;;;;;;68.80;11.40;;;19.60;85.10;;;;;;5084292;28;20423;-82
2022/07/09 00:25:08;;;;;;;69.17;13.67;;;19.60;85.90;;;;;;5085854;28;20165;-82
2022/07/09 00:27:34;;;;;;;74.07;17.70;;;19.60;87.10;;;;;;5084077;28;20517;-82
2022/07/09 00:30:00;;;;;;;73.67;16.00;;;19.60;87.90;;;;;;5084831;28;20188;-82
2022/07/09 00:32:25;;;;;;;74.27;15.17;;;19.60;88.60;;;;;;5083965;28;20593;-82
2022/07/09 00:34:51;;;;;;;73.03;16.60;;;19.50;89.80;;;;;;5085243;28;20178;-82
2022/07/09 00:37:17;;;;;;;70.07;15.57;;;19.50;90.30;;;;;;5085178;28;20195;-82
2022/07/09 00:39:42;;;;;;;71.90;14.60;;;19.50;90.10;;;;;;5084516;28;20509;-82
2022/07/09 00:42:10;;;;;;;68.93;13.37;;;19.50;89.40;;;;;;5083943;28;20195;-82
2022/07/09 00:44:37;;;;;;;70.00;13.30;;;19.50;89.20;;;;;;5082121;28;20164;-82
2022/07/09 00:47:04;;;;;;;69.23;12.40;;;19.50;88.50;;;;;;5084591;28;20437;-82
2022/07/09 00:49:31;;;;;;;68.47;13.90;;;19.40;89.00;;;;;;5082319;28;20471;-82
2022/07/09 00:51:57;;;;;;;73.80;15.70;;;19.40;90.40;;;;;;5085111;28;20404;-82
2022/07/09 00:54:24;;;;;;;69.30;12.87;;;19.40;90.50;;;;;;5082694;28;20406;-82
2022/07/09 00:56:53;;;;;;;68.43;14.10;;;19.40;91.10;;;;;;5081639;28;20441;-82
2022/07/09 00:59:19;;;;;;;68.67;12.13;;;19.40;91.00;;;;;;5081725;28;20421;-82
2022/07/09 01:01:45;;;;;;;74.80;16.10;;;19.40;90.90;;;;;;5084694;28;20502;-82
2022/07/09 01:04:11;;;;;;;71.70;13.57;;;19.30;91.70;;;;;;5083127;28;20414;-82
2022/07/09 01:06:37;;;;;;;69.27;11.57;;;19.30;92.10;;;;;;5082585;28;20414;-82
2022/07/09 01:09:03;;;;;;;72.80;13.50;;;19.20;92.50;;;;;;5082475;28;20466;-82
2022/07/09 01:11:30;;;;;;;68.77;14.20;;;19.20;92.90;;;;;;5082949;28;20168;-82
2022/07/09 01:13:55;;;;;;;68.80;13.70;;;19.20;92.50;;;;;;5082447;28;20769;-82
2022/07/09 01:16:22;;;;;;;72.97;13.97;;;19.30;92.50;;;;;;5082243;28;20412;-82
2022/07/09 01:18:48;;;;;;;68.93;12.93;;;19.20;92.60;;;;;;5081301;28;20183;-82
2022/07/09 01:21:14;;;;;;;69.80;13.40;;;19.20;92.70;;;;;;5080472;28;20984;-82
2022/07/09 01:23:40;;;;;;;69.50;11.67;;;19.20;92.30;;;;;;5082286;28;20165;-82
2022/07/09 01:26:06;;;;;;;69.57;13.00;;;19.20;93.00;;;;;;5082175;28;20407;-82
2022/07/09 01:28:32;;;;;;;70.20;12.47;;;19.10;93.20;;;;;;5083755;28;20187;-82
2022/07/09 01:30:59;;;;;;;71.63;11.50;;;19.20;93.00;;;;;;5084126;28;20404;-82
2022/07/09 01:33:25;;;;;;;69.17;11.80;;;19.10;93.30;;;;;;5082473;28;20181;-82
2022/07/09 01:35:51;;;;;;;68.37;11.60;;;19.10;93.40;;;;;;5082035;28;20460;-82
2022/07/09 01:38:17;;;;;;;69.80;11.93;;;19.10;93.60;;;;;;5081284;28;20877;-82
2022/07/09 01:40:42;;;;;;;68.70;11.17;;;19.10;93.50;;;;;;5081163;28;20241;-82
2022/07/09 01:43:08;;;;;;;72.57;12.60;;;19.00;93.50;;;;;;5081135;28;20159;-82
2022/07/09 01:45:34;;;;;;;68.30;11.20;;;19.00;93.30;;;;;;5081661;28;20164;-82
2022/07/09 01:47:59;;;;;;;69.60;12.03;;;19.00;93.40;;;;;;5080198;28;20192;-82
2022/07/09 01:50:25;;;;;;;68.20;10.63;;;19.00;93.60;;;;;;5082161;28;20167;-82
2022/07/09 01:52:51;;;;;;;67.93;10.63;;;19.00;93.30;;;;;;5081396;28;20189;-82
2022/07/09 01:55:16;;;;;;;70.57;10.13;;;19.00;93.10;;;;;;5080549;28;20301;-82
2022/07/09 01:57:42;;;;;;;68.77;10.43;;;18.90;94.00;;;;;;5084849;28;20258;-82
2022/07/09 02:00:08;;;;;;;68.23;9.83;;;18.90;94.70;;;;;;5082557;28;20165;-82
2022/07/09 02:02:34;;;;;;;69.00;9.37;;;18.90;95.00;;;;;;5080115;28;20195;-82
2022/07/09 02:04:59;;;;;;;68.00;9.23;;;18.90;94.90;;;;;;5083635;28;20426;-82
2022/07/09 02:07:25;;;;;;;69.90;10.37;;;18.90;94.60;;;;;;5080180;28;20230;-82
2022/07/09 02:09:51;;;;;;;70.67;9.83;;;18.90;94.00;;;;;;5087078;28;20268;-82
2022/07/09 02:12:17;;;;;;;71.23;10.90;;;18.80;95.00;;;;;;5087951;28;20246;-82
2022/07/09 02:14:44;;;;;;;68.77;10.40;;;18.80;96.10;;;;;;5087801;28;20406;-82
2022/07/09 02:17:09;;;;;;;69.17;9.93;;;18.80;96.30;;;;;;5085795;28;20423;-82
2022/07/09 02:19:35;;;;;;;72.90;10.80;;;18.80;96.10;;;;;;5084634;28;20436;-82
2022/07/09 02:22:01;;;;;;;68.47;10.53;;;18.80;96.70;;;;;;5088269;28;20192;-82
2022/07/09 02:24:27;;;;;;;69.70;9.83;;;18.80;96.50;;;;;;5088227;28;20164;-82
2022/07/09 02:26:53;;;;;;;69.80;10.57;;;18.70;97.00;;;;;;5087215;28;20176;-82
2022/07/09 02:29:19;;;;;;;70.00;9.50;;;18.80;96.60;;;;;;5085704;28;20409;-82
2022/07/09 02:31:45;;;;;;;67.90;10.90;;;18.80;96.10;;;;;;5158585;22;20437;-84
2022/07/09 02:34:10;;;;;;;68.80;9.83;;;18.90;95.50;;;;;;5103673;28;20178;-84
2022/07/09 02:36:36;;;;;;;72.10;11.73;;;18.80;95.50;;;;;;5103365;28;20162;-84
2022/07/09 02:39:02;;;;;;;67.80;10.10;;;18.80;96.00;;;;;;5104106;28;20164;-84
2022/07/09 02:41:27;;;;;;;74.67;10.33;;;18.70;96.30;;;;;;5085115;28;20230;-84
2022/07/09 02:43:53;;;;;;;68.37;10.13;;;18.70;97.30;;;;;;5085298;28;20173;-84
2022/07/09 02:46:19;;;;;;;70.10;10.43;;;18.60;98.10;;;;;;5103469;28;20167;-84
2022/07/09 02:48:44;;;;;;;69.87;11.00;;;18.60;97.40;;;;;;5087176;28;20183;-84
2022/07/09 02:51:10;;;;;;;69.90;11.00;;;18.60;97.80;;;;;;5105506;28;20167;-84
2022/07/09 02:53:36;;;;;;;70.53;10.60;;;18.60;96.70;;;;;;5084915;28;20171;-84
2022/07/09 02:56:01;;;;;;;71.60;10.90;;;18.60;98.00;;;;;;5084822;28;20199;-84
2022/07/09 02:58:27;;;;;;;70.57;11.37;;;18.50;98.10;;;;;;5102969;28;20196;-84
2022/07/09 03:00:53;;;;;;;70.97;10.57;;;18.50;98.90;;;;;;5084948;28;20191;-84
2022/07/09 03:03:19;;;;;;;69.70;11.47;;;18.50;99.00;;;;;;5103339;28;20401;-84
2022/07/09 03:05:45;;;;;;;72.60;12.30;;;18.50;99.10;;;;;;5085166;28;20168;-84
2022/07/09 03:08:10;;;;;;;67.80;9.30;;;18.50;99.70;;;;;;5103254;28;20194;-84
2022/07/09 03:10:36;;;;;;;69.27;10.17;;;18.60;99.00;;;;;;5087886;28;20199;-84
2022/07/09 03:13:02;;;;;;;69.80;10.17;;;18.60;99.00;;;;;;5085724;28;20163;-84
2022/07/09 03:15:28;;;;;;;69.00;11.17;;;18.60;99.60;;;;;;5103118;28;20404;-84
2022/07/09 03:17:53;;;;;;;69.57;11.57;;;18.60;99.90;;;;;;5105793;28;20243;-85
2022/07/09 03:20:19;;;;;;;69.67;12.87;;;18.60;99.90;;;;;;5104882;28;20179;-84
2022/07/09 03:22:45;;;;;;;72.33;11.90;;;18.60;99.90;;;;;;5084430;28;20193;-84
2022/07/09 03:25:10;;;;;;;71.33;10.53;;;18.60;99.90;;;;;;5103008;28;20163;-84
2022/07/09 03:27:36;;;;;;;70.57;12.90;;;18.60;99.90;;;;;;5105695;28;20192;-84
2022/07/09 03:30:03;;;;;;;68.57;9.47;;;18.60;99.90;;;;;;5103148;28;20178;-84
2022/07/09 03:32:29;;;;;;;70.73;10.10;;;18.60;99.90;;;;;;5087188;28;20183;-85
2022/07/09 03:34:58;;;;;;;72.20;13.87;;;18.50;99.90;;;;;;5084761;28;20417;-84
2022/07/09 03:37:23;;;;;;;73.80;11.87;;;18.50;99.90;;;;;;5084401;28;20195;-84
2022/07/09 03:39:49;;;;;;;70.77;11.57;;;18.50;99.90;;;;;;5102483;28;20408;-84
2022/07/09 03:42:15;;;;;;;72.07;15.77;;;18.50;99.90;;;;;;5102874;28;20217;-84
2022/07/09 03:44:41;;;;;;;69.77;11.87;;;18.50;99.90;;;;;;5102591;28;20163;-84
2022/07/09 03:47:07;;;;;;;72.03;14.07;;;18.50;99.90;;;;;;5084361;28;20437;-84
2022/07/09 03:49:33;;;;;;;70.57;10.93;;;18.50;99.90;;;;;;5083320;28;20422;-84
2022/07/09 03:51:59;;;;;;;71.43;13.77;;;18.50;99.90;;;;;;5102113;28;20408;-84
2022/07/09 03:54:25;;;;;;;75.00;18.93;;;18.50;99.90;;;;;;5101554;28;20764;-84
2022/07/09 03:56:51;;;;;;;71.00;14.60;;;18.50;99.90;;;;;;5101461;28;20811;-84
2022/07/09 03:59:17;;;;;;;69.77;11.10;;;18.50;99.90;;;;;;5105100;28;20197;-84
2022/07/09 04:01:44;;;;;;;70.50;15.83;;;18.50;99.90;;;;;;5082947;28;20972;-83
2022/07/09 04:04:09;;;;;;;71.80;12.50;;;18.50;99.90;;;;;;5086105;28;20587;-84
2022/07/09 04:06:35;;;;;;;71.97;15.37;;;18.50;99.90;;;;;;5101550;28;20812;-84
2022/07/09 04:09:04;;;;;;;71.10;13.53;;;18.40;99.90;;;;;;5083218;28;20167;-84
2022/07/09 04:11:33;;;;;;;71.27;17.47;;;18.40;99.90;;;;;;5100945;28;20197;-84
2022/07/09 04:14:00;;;;;;;71.53;16.97;;;18.40;99.90;;;;;;5101296;28;20463;-84
2022/07/09 04:16:26;;;;;;;71.47;12.27;;;18.40;99.90;;;;;;5083272;28;20423;-84
2022/07/09 04:18:52;;;;;;;68.60;13.20;;;18.40;99.90;;;;;;5086143;28;20432;-84
2022/07/09 04:21:17;;;;;;;68.97;10.87;;;18.50;99.90;;;;;;5083247;28;20440;-84
2022/07/09 04:23:43;;;;;;;69.17;10.57;;;18.60;99.90;;;;;;5101449;28;20191;-84
2022/07/09 04:26:09;;;;;;;67.97;11.07;;;18.50;99.90;;;;;;5101485;28;20227;-84
2022/07/09 04:28:38;;;;;;;75.03;15.33;;;18.40;99.90;;;;;;5066136;28;20188;-84
2022/07/09 04:31:04;;;;;;;70.00;17.83;;;18.40;99.90;;;;;;5083846;28;20445;-84
2022/07/09 04:33:30;;;;;;;70.90;13.00;;;18.50;99.90;;;;;;5085719;28;20471;-84
2022/07/09 04:35:56;;;;;;;69.80;8.87;;;18.60;99.90;;;;;;5101695;28;20405;-84
2022/07/09 04:38:21;;;;;;;70.20;13.73;;;18.60;99.90;;;;;;5103903;28;20273;-84
2022/07/09 04:40:47;;;;;;;70.87;11.20;;;18.60;99.90;;;;;;5102907;28;20269;-84
2022/07/09 04:43:13;;;;;;;70.97;13.40;;;18.70;99.90;;;;;;5085788;28;20630;-84
2022/07/09 04:45:39;;;;;;;69.10;11.00;;;18.80;99.90;;;;;;5085071;28;20417;-85
2022/07/09 04:48:05;;;;;;;72.77;8.23;;;18.90;99.90;;;;;;5084966;28;20179;-84
2022/07/09 04:50:30;;;;;;;68.03;7.73;;;19.10;99.90;;;;;;5082780;28;20178;-84
2022/07/09 04:52:56;;;;;;;69.10;8.20;;;19.10;99.90;;;;;;5082658;28;20176;-84
2022/07/09 04:55:22;;;;;;;71.97;8.07;;;19.10;99.90;;;;;;5082285;28;20418;-84
2022/07/09 04:57:48;;;;;;;68.97;8.93;;;19.00;99.90;;;;;;5100689;28;20215;-84
2022/07/09 05:00:15;;;;;;;71.67;9.57;;;18.90;99.90;;;;;;5101054;28;20159;-84
2022/07/09 05:02:42;;;;;;;68.13;7.53;;;18.90;99.90;;;;;;5100903;28;20496;-84
2022/07/09 05:05:08;;;;;;;70.67;9.70;;;18.90;99.90;;;;;;5100669;28;20433;-84
2022/07/09 05:07:34;;;;;;;69.17;8.07;;;18.80;99.90;;;;;;5100405;28;20794;-84
2022/07/09 05:10:03;;;;;;;71.33;10.70;;;18.80;99.90;;;;;;5082640;28;20416;-84
2022/07/09 05:12:30;;;;;;;70.87;10.80;;;18.70;99.90;;;;;;5100681;28;20402;-84
2022/07/09 05:14:56;;;;;;;71.57;10.50;;;18.70;99.90;;;;;;5100721;28;20413;-84
2022/07/09 05:17:22;;;;;;;68.70;11.63;;;18.80;99.90;;;;;;5100656;28;20425;-84
2022/07/09 05:19:48;;;;;;;68.47;11.67;;;18.70;99.90;;;;;;5084311;28;20440;-84
2022/07/09 05:22:14;;;;;;;69.20;9.47;;;18.80;99.90;;;;;;5102276;28;20433;-84
2022/07/09 05:24:40;;;;;;;71.57;13.50;;;18.80;99.90;;;;;;5099840;28;20405;-84
2022/07/09 05:27:06;;;;;;;70.53;11.17;;;18.80;99.90;;;;;;5099746;28;20190;-83
2022/07/09 05:29:32;;;;;;;75.10;15.30;;;18.90;99.90;;;;;;5081893;28;20413;-84
2022/07/09 05:31:58;;;;;;;73.47;16.97;;;19.00;99.90;;;;;;5081974;28;20437;-84
2022/07/09 05:34:24;;;;;;;69.33;11.10;;;19.10;99.90;;;;;;5102469;28;20466;-84
2022/07/09 05:36:54;;;;;;;69.97;12.53;;;19.20;99.90;;;;;;5082773;28;20413;-84
2022/07/09 05:39:20;;;;;;;72.30;12.63;;;19.20;99.90;;;;;;5101062;28;20522;-84
2022/07/09 05:41:46;;;;;;;74.27;14.37;;;19.20;99.90;;;;;;5099709;28;20440;-84
2022/07/09 05:44:12;;;;;;;75.43;16.30;;;19.20;99.90;;;;;;5098938;28;20761;-84
2022/07/09 05:46:37;;;;;;;74.60;10.80;;;19.30;99.90;;;;;;5080771;28;20174;-84
2022/07/09 05:49:04;;;;;;;72.67;14.97;;;19.30;99.90;;;;;;5081135;28;20168;-83
2022/07/09 05:51:29;;;;;;;76.10;17.23;;;19.30;99.90;;;;;;5099521;28;20560;-84
2022/07/09 05:53:55;;;;;;;74.63;16.77;;;19.40;99.90;;;;;;5081026;28;20413;-84
2022/07/09 05:56:21;;;;;;;79.20;18.97;;;19.30;99.90;;;;;;5081413;28;20233;-84
2022/07/09 05:58:50;;;;;;;76.77;22.07;;;19.40;99.90;;;;;;5081336;28;20214;-84
2022/07/09 06:01:16;;;;;;;74.40;18.47;;;19.40;99.90;;;;;;5100686;28;21001;-84
2022/07/09 06:03:42;;;;;;;74.33;19.03;;;19.50;99.90;;;;;;5081561;28;20413;-83
2022/07/09 06:06:09;;;;;;;81.27;18.77;;;19.50;99.90;;;;;;5082936;28;20406;-85
2022/07/09 06:08:34;;;;;;;77.27;23.90;;;19.50;99.90;;;;;;5101014;28;20473;-84
2022/07/09 06:11:00;;;;;;;75.53;24.37;;;19.50;99.90;;;;;;5100709;28;20397;-85
2022/07/09 06:13:26;;;;;;;77.87;26.20;;;19.60;99.90;;;;;;5101067;28;20167;-85
2022/07/09 06:15:52;;;;;;;78.00;26.63;;;19.50;99.90;;;;;;5100132;28;20961;-85
2022/07/09 06:18:18;;;;;;;79.47;26.60;;;19.50;99.90;;;;;;5083400;28;20245;-85
2022/07/09 06:20:45;;;;;;;75.37;27.50;;;19.50;99.90;;;;;;5100237;28;20463;-85
2022/07/09 06:23:12;;;;;;;74.80;23.83;;;19.50;99.90;;;;;;5100061;28;20412;-85
2022/07/09 06:25:38;;;;;;;74.73;27.00;;;19.60;99.90;;;;;;5099766;28;20426;-84
2022/07/09 06:28:05;;;;;;;73.83;20.70;;;19.70;99.90;;;;;;5213727;22;20497;-84
2022/07/09 06:30:31;;;;;;;77.60;19.60;;;19.90;99.90;;;;;;5297768;22;20497;-86
2022/07/09 06:32:57;;;;;;;74.13;17.67;;;20.00;99.90;;;;;;5169957;22;20502;-84
2022/07/09 06:35:23;;;;;;;78.17;20.43;;;20.00;99.90;;;;;;5079946;28;20762;-84
2022/07/09 06:37:48;;;;;;;78.13;18.80;;;20.00;99.90;;;;;;5080274;28;20475;-84
2022/07/09 06:40:14;;;;;;;74.40;20.83;;;20.00;99.90;;;;;;5079577;28;20414;-84
2022/07/09 06:42:40;;;;;;;73.97;17.70;;;19.90;99.90;;;;;;5079730;28;20676;-84
2022/07/09 06:45:07;;;;;;;77.00;19.30;;;19.90;99.90;;;;;;5079174;28;20168;-84
2022/07/09 06:47:32;;;;;;;78.30;20.17;;;19.80;99.90;;;;;;5079838;28;20238;-84
2022/07/09 06:49:58;;;;;;;76.63;20.53;;;19.80;99.90;;;;;;5080896;28;20402;-83
2022/07/09 06:52:24;;;;;;;74.23;22.07;;;19.90;99.90;;;;;;5078473;28;20172;-84
2022/07/09 06:54:50;;;;;;;74.43;20.87;;;19.80;99.90;;;;;;5079860;28;20168;-84
2022/07/09 06:57:16;;;;;;;71.73;19.63;;;19.90;99.90;;;;;;5083324;28;20635;-84
2022/07/09 06:59:42;;;;;;;72.53;18.47;;;19.90;99.90;;;;;;5083681;28;20619;-84
2022/07/09 07:02:08;;;;;;;72.97;16.33;;;20.00;99.90;;;;;;5083829;28;20452;-84
2022/07/09 07:04:34;;;;;;;76.70;14.37;;;20.00;99.90;;;;;;5082199;28;20214;-83
2022/07/09 07:06:59;;;;;;;69.10;11.00;;;20.10;99.90;;;;;;5082395;28;20180;-83
2022/07/09 07:09:25;;;;;;;69.37;10.00;;;20.10;99.90;;;;;;5079161;28;20425;-83
2022/07/09 07:11:51;;;;;;;68.77;9.47;;;20.10;99.90;;;;;;5079766;28;20259;-83
2022/07/09 07:14:17;;;;;;;69.70;8.60;;;20.10;99.90;;;;;;5079188;28;20164;-83
2022/07/09 07:16:44;;;;;;;73.87;11.67;;;20.10;99.90;;;;;;5081734;28;20174;-83
2022/07/09 07:19:10;;;;;;;69.07;10.83;;;20.20;99.90;;;;;;5082288;28;20418;-84
2022/07/09 07:21:37;;;;;;;70.30;11.80;;;20.20;99.90;;;;;;5080515;28;20442;-83
2022/07/09 07:24:04;;;;;;;67.90;6.60;;;20.20;99.90;;;;;;5080507;28;20430;-83
2022/07/09 07:26:30;;;;;;;66.27;5.50;;;20.20;99.90;;;;;;5081901;28;20407;-84
2022/07/09 07:28:56;;;;;;;66.70;6.07;;;20.20;92.80;;;;;;5083725;28;20560;-83
2022/07/09 07:31:23;;;;;;;67.47;5.57;;;20.20;84.40;;;;;;5083544;28;20184;-83
2022/07/09 07:33:49;;;;;;;65.80;5.57;;;20.10;83.60;;;;;;5078741;28;20179;-84
2022/07/09 07:36:15;;;;;;;66.63;6.30;;;20.20;83.60;;;;;;5083621;28;20403;-84
2022/07/09 07:38:41;;;;;;;65.77;6.03;;;20.40;80.60;;;;;;5087951;28;20445;-84
2022/07/09 07:41:06;;;;;;;68.70;7.27;;;20.40;78.70;;;;;;5087313;28;20195;-85
2022/07/09 07:43:32;;;;;;;67.50;7.37;;;20.50;75.30;;;;;;5087330;28;20175;-85
2022/07/09 07:45:58;;;;;;;68.00;7.13;;;20.60;74.70;;;;;;5085981;28;20169;-84
2022/07/09 07:48:23;;;;;;;68.30;7.87;;;20.60;78.60;;;;;;5088216;28;20180;-85
2022/07/09 07:50:49;;;;;;;68.07;7.50;;;20.70;69.30;;;;;;5086019;28;20191;-84
2022/07/09 07:53:15;;;;;;;69.73;8.07;;;20.70;71.40;;;;;;5085585;28;20228;-85
2022/07/09 07:55:41;;;;;;;68.80;7.90;;;20.80;73.30;;;;;;5081766;28;20263;-84
2022/07/09 07:58:06;;;;;;;69.70;7.80;;;20.80;72.00;;;;;;5086966;28;20193;-85
2022/07/09 08:00:32;;;;;;;68.70;7.77;;;21.00;71.00;;;;;;5081930;28;20456;-85
2022/07/09 08:02:58;;;;;;;69.53;7.93;;;21.00;65.20;;;;;;5084589;28;20185;-84
2022/07/09 08:05:25;;;;;;;67.67;7.10;;;21.10;65.00;;;;;;5085294;28;20178;-84
2022/07/09 08:07:50;;;;;;;66.10;7.33;;;21.00;60.90;;;;;;5084609;28;20190;-84
2022/07/09 08:10:16;;;;;;;66.73;7.00;;;21.00;70.00;;;;;;5083522;28;20408;-84
2022/07/09 08:12:42;;;;;;;66.97;8.13;;;21.10;61.70;;;;;;5082771;28;20164;-85
2022/07/09 08:15:08;;;;;;;68.03;9.07;;;21.10;61.50;;;;;;5083899;28;20589;-84
2022/07/09 08:17:34;;;;;;;67.53;8.10;;;21.10;59.10;;;;;;5084234;28;20190;-84
2022/07/09 08:19:59;;;;;;;67.93;8.57;;;21.10;56.10;;;;;;5082315;28;20404;-85
2022/07/09 08:22:25;;;;;;;73.70;11.07;;;21.20;62.00;;;;;;5082881;28;20279;-84
2022/07/09 08:24:50;;;;;;;67.00;7.80;;;21.40;60.20;;;;;;5081414;28;20574;-84
2022/07/09 08:27:16;;;;;;;67.20;7.93;;;21.40;59.40;;;;;;5082046;28;20655;-83
2022/07/09 08:29:43;;;;;;;70.80;9.00;;;21.30;53.30;;;;;;5082463;28;20165;-83
2022/07/09 08:32:09;;;;;;;69.10;8.50;;;21.30;52.70;;;;;;5081143;28;20420;-84
2022/07/09 08:34:34;;;;;;;67.90;7.87;;;21.30;52.50;;;;;;5082591;28;20414;-84
2022/07/09 08:37:00;;;;;;;70.10;9.33;;;21.50;53.80;;;;;;5082742;28;20186;-83
2022/07/09 08:39:26;;;;;;;67.20;6.67;;;21.70;51.50;;;;;;5083037;28;20171;-83
2022/07/09 08:41:51;;;;;;;67.30;6.30;;;21.90;46.70;;;;;;5082829;28;20286;-84
2022/07/09 08:44:23;;;;;;;67.80;8.00;;;22.10;44.50;;;;;;5081603;28;20170;-84
2022/07/09 08:46:49;;;;;;;67.97;4.67;;;22.10;47.00;;;;;;5084175;28;20501;-85
2022/07/09 08:49:16;;;;;;;68.77;4.17;;;22.20;37.70;;;;;;5083263;28;20402;-85
2022/07/09 08:51:43;;;;;;;68.60;4.43;;;22.30;31.50;;;;;;5082260;28;20180;-84
2022/07/09 08:54:09;;;;;;;67.33;4.53;;;22.40;32.00;;;;;;5084100;28;20936;-84
2022/07/09 08:56:35;;;;;;;73.50;4.20;;;22.50;30.00;;;;;;5085261;28;20406;-84
2022/07/09 08:59:01;;;;;;;68.70;4.60;;;22.70;29.90;;;;;;5083792;28;20322;-84
2022/07/09 09:01:28;;;;;;;67.87;3.87;;;22.80;27.20;;;;;;5084413;28;20449;-84
2022/07/09 09:03:54;;;;;;;68.50;4.00;;;23.10;28.50;;;;;;5084938;28;20424;-84
2022/07/09 09:06:23;;;;;;;66.13;3.27;;;23.10;26.80;;;;;;5085187;28;20821;-85
2022/07/09 09:08:55;;;;;;;66.50;3.60;;;23.20;19.80;;;;;;5084202;28;20422;-84
2022/07/09 09:11:23;;;;;;;66.80;2.97;;;22.90;20.90;;;;;;5085574;28;20401;-84
2022/07/09 09:13:49;;;;;;;67.20;3.40;;;23.00;17.00;;;;;;5084838;28;20410;-85
2022/07/09 09:16:17;;;;;;;66.70;3.47;;;22.90;23.20;;;;;;5085305;28;20860;-86
2022/07/09 09:18:48;;;;;;;66.83;3.97;;;22.80;13.60;;;;;;5084781;28;20790;-85
2022/07/09 09:21:15;;;;;;;69.40;3.50;;;22.90;16.80;;;;;;5084027;28;20446;-85
2022/07/09 09:23:46;;;;;;;67.53;3.40;;;23.00;21.20;;;;;;5084443;28;20422;-85
2022/07/09 09:26:19;;;;;;;66.33;3.13;;;22.90;20.50;;;;;;5083691;28;20402;-85
2022/07/09 09:29:00;;;;;;;66.40;2.90;;;23.10;18.40;;;;;;5085051;28;20426;-85
2022/07/09 09:31:28;;;;;;;65.97;3.03;;;23.10;16.40;;;;;;5084730;28;20442;-85
2022/07/09 09:33:56;;;;;;;67.63;4.00;;;23.10;15.40;;;;;;5084637;28;20391;-85
2022/07/09 09:36:33;;;;;;;66.90;2.80;;;23.20;17.20;;;;;;5084626;28;20406;-85
2022/07/09 09:39:24;;;;;;;67.90;4.73;;;23.40;22.10;;;;;;5084125;28;21050;-85
2022/07/09 09:41:54;;;;;;;66.17;3.37;;;23.40;12.40;;;;;;5083928;28;20454;-85
2022/07/09 09:44:29;;;;;;;66.27;3.30;;;23.50;16.30;;;;;;5083685;28;20468;-85
2022/07/09 09:46:56;;;;;;;66.20;2.77;;;23.70;14.40;;;;;;5083187;28;20487;-85
2022/07/09 09:49:22;;;;;;;67.60;7.40;;;23.80;15.40;;;;;;5083483;28;20406;-85
2022/07/09 09:52:03;;;;;;;70.10;5.53;;;23.80;1.00;;;;;;5083676;28;20414;-85
2022/07/09 09:54:31;;;;;;;66.57;5.03;;;24.10;1.00;;;;;;5085183;28;20806;-84
2022/07/09 09:56:58;;;;;;;65.67;2.60;;;24.40;1.00;;;;;;5083918;28;20503;-85
2022/07/09 09:59:24;;;;;;;66.10;2.43;;;24.60;1.00;;;;;;5084363;28;20406;-85
2022/07/09 10:01:50;;;;;;;66.17;2.67;;;24.70;1.00;;;;;;5084505;28;20449;-85
2022/07/09 10:04:16;;;;;;;67.27;4.10;;;25.00;1.00;;;;;;5084009;28;20410;-85
2022/07/09 10:06:42;;;;;;;68.97;3.70;;;25.10;1.00;;;;;;5085502;28;20168;-85
2022/07/09 10:09:11;;;;;;;67.80;2.90;;;25.00;1.00;;;;;;5085126;28;20418;-86
2022/07/09 10:11:44;;;;;;;66.07;2.40;;;25.10;1.00;;;;;;5083876;28;20442;-85
2022/07/09 10:14:28;;;;;;;67.67;2.33;;;25.20;1.00;;;;;;5083082;28;20414;-85
2022/07/09 10:16:54;;;;;;;66.50;2.23;;;25.10;1.00;;;;;;5084834;28;20418;-85
2022/07/09 10:19:29;;;;;;;67.57;2.30;;;25.00;1.00;;;;;;5084795;28;20400;-85
2022/07/09 10:21:57;;;;;;;65.67;2.20;;;25.00;1.00;;;;;;5084104;28;20517;-86
2022/07/09 10:24:31;;;;;;;66.80;2.33;;;25.10;1.00;;;;;;5082482;28;20411;-85
2022/07/09 10:27:11;;;;;;;65.60;2.20;;;25.00;1.00;;;;;;5082420;28;20440;-85
2022/07/09 10:29:56;;;;;;;68.90;2.80;;;25.20;1.00;;;;;;5085411;28;20486;-85
2022/07/09 10:32:32;;;;;;;66.67;1.90;;;25.30;1.00;;;;;;5087428;28;20409;-85
2022/07/09 10:35:13;;;;;;;66.03;2.30;;;25.40;1.00;;;;;;5088192;28;20414;-85
2022/07/09 10:37:45;;;;;;;65.60;1.80;;;25.40;1.00;;;;;;5086596;28;20434;-85
2022/07/09 10:40:19;;;;;;;65.87;2.23;;;25.40;1.00;;;;;;5088610;28;20428;-85
2022/07/09 10:42:56;;;;;;;65.77;2.03;;;25.50;1.00;;;;;;5089502;28;20440;-85
2022/07/09 10:45:27;;;;;;;65.97;1.93;;;25.40;1.00;;;;;;5088893;28;20384;-85
2022/07/09 10:47:58;;;;;;;66.10;2.30;;;25.60;1.00;;;;;;5087586;28;20493;-85
2022/07/09 10:50:26;;;;;;;67.93;1.90;;;25.80;1.00;;;;;;5087941;28;20401;-85
2022/07/09 10:52:52;;;;;;;67.37;2.77;;;25.90;1.00;;;;;;5088120;28;20457;-85
2022/07/09 10:55:25;;;;;;;68.40;2.63;;;26.00;1.00;;;;;;5089427;28;20403;-85
2022/07/09 10:57:53;;;;;;;65.83;2.43;;;26.20;1.00;;;;;;5087898;28;20424;-85
2022/07/09 11:00:30;;;;;;;66.87;2.50;;;26.60;1.00;;;;;;5086954;28;20945;-85
2022/07/09 11:02:55;;;;;;;66.00;2.70;;;26.60;1.00;;;;;;5087800;28;20452;-85
2022/07/09 11:05:24;;;;;;;68.07;2.70;;;26.40;1.00;;;;;;5085964;28;20952;-85
2022/07/09 11:07:58;;;;;;;66.17;2.60;;;26.10;1.00;;;;;;5086522;28;20282;-86
2022/07/09 11:10:26;;;;;;;68.00;2.60;;;25.90;1.00;;;;;;5087613;28;20404;-86
2022/07/09 11:12:52;;;;;;;68.93;3.10;;;25.90;1.00;;;;;;5087678;28;20461;-85
2022/07/09 11:15:22;;;;;;;66.17;3.07;;;25.90;1.00;;;;;;5087693;28;20417;-85
2022/07/09 11:18:17;;;;;;;67.77;2.57;;;25.80;1.00;;;;;;5086312;28;20437;-85
2022/07/09 11:20:45;;;;;;;66.60;3.13;;;25.70;1.00;;;;;;5072965;28;20469;-85
2022/07/09 11:23:12;;;;;;;66.60;2.30;;;25.60;1.00;;;;;;5087466;28;20508;-85
2022/07/09 11:25:38;;;;;;;69.20;3.10;;;25.60;1.00;;;;;;5086571;28;20400;-85
2022/07/09 11:28:04;;;;;;;67.63;2.80;;;25.60;1.00;;;;;;5086476;28;20412;-85
2022/07/09 11:30:32;;;;;;;66.67;2.90;;;26.10;1.00;;;;;;5086195;28;20409;-86
2022/07/09 11:32:58;;;;;;;65.80;2.77;;;26.60;1.00;;;;;;5085776;28;20495;-86
2022/07/09 11:35:32;;;;;;;66.10;3.20;;;26.70;1.00;;;;;;5087190;28;20409;-85
2022/07/09 11:38:00;;;;;;;67.57;3.13;;;26.40;1.00;;;;;;5087596;28;20815;-85
2022/07/09 11:40:27;;;;;;;66.50;2.70;;;26.30;1.00;;;;;;5086406;28;20888;-85
2022/07/09 11:42:53;;;;;;;66.30;2.80;;;26.40;1.00;;;;;;5086712;28;20480;-85
2022/07/09 11:45:27;;;;;;;68.13;3.10;;;26.50;1.00;;;;;;5086604;28;20466;-85
2022/07/09 11:48:07;;;;;;;66.17;2.90;;;26.40;1.00;;;;;;5085790;28;20497;-85
2022/07/09 11:50:43;;;;;;;65.73;2.63;;;26.00;1.00;;;;;;5085535;28;20413;-85
2022/07/09 11:53:29;;;;;;;66.03;3.10;;;25.70;1.00;;;;;;5085415;28;20413;-85
2022/07/09 11:56:04;;;;;;;67.50;2.90;;;25.60;1.00;;;;;;5085053;28;20436;-85
2022/07/09 11:58:29;;;;;;;70.60;3.03;;;25.60;1.00;;;;;;5085422;28;20417;-85
2022/07/09 12:00:59;;;;;;;66.70;3.50;;;25.80;1.00;;;;;;5085044;28;20445;-85
2022/07/09 12:03:26;;;;;;;66.00;3.07;;;26.00;1.00;;;;;;5085052;28;20554;-85
2022/07/09 12:05:53;;;;;;;66.17;3.00;;;26.20;1.00;;;;;;5085016;28;20421;-85
2022/07/09 12:08:29;;;;;;;66.67;3.60;;;26.20;1.00;;;;;;5083928;28;20429;-86
2022/07/09 12:11:02;;;;;;;66.50;3.33;;;26.10;1.00;;;;;;5085786;28;20413;-85
2022/07/09 12:13:29;;;;;;;66.00;2.90;;;26.10;1.00;;;;;;5082458;28;20444;-85
2022/07/09 12:15:55;;;;;;;66.30;3.40;;;25.90;1.00;;;;;;5085773;28;20418;-85
2022/07/09 12:18:20;;;;;;;66.57;3.30;;;25.80;1.00;;;;;;5086632;28;20516;-85
2022/07/09 12:20:46;;;;;;;67.10;3.57;;;25.80;1.00;;;;;;5085956;28;20171;-85
2022/07/09 12:23:12;;;;;;;69.43;3.60;;;25.80;1.00;;;;;;5086680;28;20171;-85
2022/07/09 12:25:38;;;;;;;66.87;3.87;;;25.70;1.00;;;;;;5085712;28;20192;-85
2022/07/09 12:28:04;;;;;;;66.70;3.20;;;25.70;1.00;;;;;;5085442;28;20195;-85
2022/07/09 12:30:30;;;;;;;68.37;3.57;;;25.70;1.00;;;;;;5084836;28;20481;-86
2022/07/09 12:32:58;;;;;;;66.03;2.80;;;25.70;1.00;;;;;;5086015;28;20447;-85